createdAt,value
2017-10-21T00:00:34.198Z,80.28
2017-10-21T00:03:01.789Z,80.36
2017-10-21T00:05:30.882Z,80.80
2017-10-21T00:07:58.573Z,81.13
2017-10-21T00:10:26.182Z,81.42
2017-10-21T00:12:53.771Z,81.51
2017-10-21T00:15:21.396Z,81.57
2017-10-21T00:17:50.439Z,81.46
2017-10-21T00:20:18.079Z,81.45
2017-10-21T00:22:45.640Z,81.27
2017-10-21T00:25:13.351Z,81.28
2017-10-21T00:27:40.929Z,81.38
2017-10-21T00:30:09.295Z,81.25
2017-10-21T00:32:36.878Z,81.39
2017-10-21T00:35:04.488Z,81.19
2017-10-21T00:37:32.093Z,81.03
2017-10-21T00:39:59.725Z,81.04
2017-10-21T00:42:27.311Z,81.10
2017-10-21T00:44:54.909Z,81.22
2017-10-21T00:47:22.524Z,81.25
2017-10-21T00:49:52.576Z,81.25
2017-10-21T00:52:20.204Z,81.28
2017-10-21T00:54:48.182Z,81.61
2017-10-21T00:57:15.766Z,81.85
2017-10-21T00:59:43.344Z,81.71
2017-10-21T01:02:10.952Z,81.74
2017-10-21T01:04:38.545Z,81.65
2017-10-21T01:07:06.150Z,81.80
2017-10-21T01:09:35.518Z,81.82
2017-10-21T01:12:04.314Z,81.99
2017-10-21T01:14:31.951Z,82.49
2017-10-21T01:16:59.622Z,82.72
2017-10-21T01:19:27.614Z,82.93
2017-10-21T01:21:55.205Z,82.93
2017-10-21T01:24:22.744Z,83.12
2017-10-21T01:26:50.338Z,82.91
2017-10-21T01:29:17.924Z,82.90
2017-10-21T01:31:45.665Z,83.07
2017-10-21T01:34:16.964Z,83.04
2017-10-21T01:36:44.918Z,83.20
2017-10-21T01:39:12.594Z,83.33
2017-10-21T01:41:40.189Z,83.51
2017-10-21T01:44:07.790Z,83.36
2017-10-21T01:46:35.530Z,83.35
2017-10-21T01:49:03.115Z,83.28
2017-10-21T01:51:30.760Z,83.47
2017-10-21T01:53:59.812Z,83.27
2017-10-21T01:56:27.630Z,83.26
2017-10-21T01:58:55.181Z,83.20
2017-10-21T02:01:22.770Z,83.09
2017-10-21T02:03:50.374Z,83.18
2017-10-21T02:06:18.370Z,83.35
2017-10-21T02:08:45.941Z,83.53
2017-10-21T02:11:13.530Z,83.62
2017-10-21T02:13:41.120Z,83.69
2017-10-21T02:16:09.114Z,83.53
2017-10-21T02:18:37.190Z,83.72
2017-10-21T02:21:04.769Z,83.63
2017-10-21T02:23:32.403Z,83.60
2017-10-21T02:26:00.527Z,83.53
2017-10-21T02:28:28.081Z,83.71
2017-10-21T02:30:56.018Z,83.74
2017-10-21T02:33:23.589Z,84.13
2017-10-21T02:35:51.516Z,84.10
2017-10-21T02:38:19.139Z,84.12
2017-10-21T02:40:46.755Z,84.26
2017-10-21T02:43:14.738Z,84.29
2017-10-21T02:45:42.299Z,84.37
2017-10-21T02:48:09.866Z,84.55
2017-10-21T02:50:37.453Z,84.81
2017-10-21T02:53:05.016Z,85.07
2017-10-21T02:55:33.156Z,85.06
2017-10-21T02:58:00.727Z,85.06
2017-10-21T03:00:29.319Z,85.48
2017-10-21T03:02:56.905Z,85.96
2017-10-21T03:05:25.222Z,85.87
2017-10-21T03:07:53.336Z,85.67
2017-10-21T03:10:21.585Z,85.57
2017-10-21T03:12:49.199Z,85.46
2017-10-21T03:15:16.766Z,85.46
2017-10-21T03:17:44.834Z,85.40
2017-10-21T03:20:12.502Z,85.61
2017-10-21T03:22:40.066Z,85.74
2017-10-21T03:25:07.997Z,85.70
2017-10-21T03:27:35.572Z,86.07
2017-10-21T03:30:03.171Z,86.02
2017-10-21T03:32:31.448Z,86.32
2017-10-21T03:34:59.085Z,86.29
2017-10-21T03:37:26.651Z,86.43
2017-10-21T03:39:55.046Z,86.65
2017-10-21T03:42:22.821Z,86.57
2017-10-21T03:44:50.406Z,86.69
2017-10-21T03:47:18.146Z,86.73
2017-10-21T03:49:46.440Z,86.65
2017-10-21T03:52:14.033Z,86.48
2017-10-21T03:54:42.106Z,86.44
2017-10-21T03:57:09.676Z,86.78
2017-10-21T03:59:37.273Z,86.91
2017-10-21T04:02:05.433Z,87.07
2017-10-21T04:04:33.044Z,87.34
2017-10-21T04:07:00.613Z,87.40
2017-10-21T04:09:28.201Z,87.36
2017-10-21T04:11:55.798Z,87.29
2017-10-21T04:14:23.887Z,87.60
2017-10-21T04:16:51.485Z,87.63
2017-10-21T04:19:19.070Z,88.06
2017-10-21T04:21:48.144Z,88.05
2017-10-21T04:24:16.017Z,88.06
2017-10-21T04:26:44.013Z,88.77
2017-10-21T04:29:11.575Z,88.89
2017-10-21T04:31:39.556Z,88.96
2017-10-21T04:34:07.146Z,89.18
2017-10-21T04:36:34.749Z,89.38
2017-10-21T04:39:04.705Z,89.60
2017-10-21T04:41:32.294Z,89.92
2017-10-21T04:44:01.248Z,91.07
2017-10-21T04:46:29.205Z,91.71
2017-10-21T04:48:57.095Z,92.18
2017-10-21T04:51:24.687Z,92.11
2017-10-21T04:53:52.946Z,92.44
2017-10-21T04:56:20.530Z,92.56
2017-10-21T04:58:48.110Z,93.09
2017-10-21T05:01:15.743Z,93.37
2017-10-21T05:03:43.340Z,93.46
2017-10-21T05:06:11.547Z,93.57
2017-10-21T05:08:40.396Z,93.49
2017-10-21T05:11:08.305Z,93.69
2017-10-21T05:13:36.003Z,93.71
2017-10-21T05:16:03.932Z,93.56
2017-10-21T05:18:31.605Z,93.54
2017-10-21T05:20:59.218Z,93.36
2017-10-21T05:23:26.842Z,93.29
2017-10-21T05:25:54.432Z,93.41
2017-10-21T05:28:23.628Z,93.55
2017-10-21T05:30:52.181Z,93.73
2017-10-21T05:33:20.591Z,94.01
2017-10-21T05:35:48.171Z,94.34
2017-10-21T05:38:17.058Z,94.69
2017-10-21T05:40:44.623Z,94.89
2017-10-21T05:43:12.613Z,95.07
2017-10-21T05:45:40.609Z,95.19
2017-10-21T05:48:08.169Z,95.30
2017-10-21T05:50:36.116Z,95.62
2017-10-21T05:53:04.947Z,95.67
2017-10-21T05:55:32.830Z,95.64
2017-10-21T05:58:00.980Z,95.59
2017-10-21T06:00:30.881Z,95.50
2017-10-21T06:02:58.479Z,95.47
2017-10-21T06:05:26.371Z,95.35
2017-10-21T06:07:53.975Z,95.40
2017-10-21T06:10:21.702Z,95.33
2017-10-21T06:12:49.923Z,95.33
2017-10-21T06:15:18.194Z,95.53
2017-10-21T06:17:46.421Z,95.80
2017-10-21T06:20:14.029Z,95.94
2017-10-21T06:22:41.621Z,96.11
2017-10-21T06:25:09.207Z,96.15
2017-10-21T06:27:36.783Z,96.22
2017-10-21T06:30:05.421Z,96.17
2017-10-21T06:32:34.125Z,96.14
2017-10-21T06:35:01.733Z,96.06
2017-10-21T06:37:29.292Z,95.96
2017-10-21T06:39:56.899Z,95.90
2017-10-21T06:42:24.523Z,95.83
2017-10-21T06:44:52.908Z,95.89
2017-10-21T06:47:20.786Z,95.91
2017-10-21T06:49:48.380Z,95.99
2017-10-21T06:52:16.002Z,96.05
2017-10-21T06:54:43.929Z,95.88
2017-10-21T06:57:11.827Z,95.90
2017-10-21T06:59:39.403Z,95.93
2017-10-21T07:02:06.978Z,95.92
2017-10-21T07:04:35.347Z,96.06
2017-10-21T07:07:02.909Z,96.10
2017-10-21T07:09:30.520Z,96.12
2017-10-21T07:11:58.114Z,96.14
2017-10-21T07:14:25.763Z,95.97
2017-10-21T07:16:53.380Z,96.08
2017-10-21T07:19:20.975Z,96.24
2017-10-21T07:21:48.616Z,96.28
2017-10-21T07:24:16.311Z,96.39
2017-10-21T07:26:43.898Z,96.39
2017-10-21T07:29:11.820Z,96.35
2017-10-21T07:31:39.898Z,96.35
2017-10-21T07:34:07.482Z,96.35
2017-10-21T07:36:35.288Z,96.25
2017-10-21T07:39:03.037Z,96.36
2017-10-21T07:41:30.668Z,96.46
2017-10-21T07:43:58.320Z,96.40
2017-10-21T07:46:25.917Z,96.42
2017-10-21T07:48:53.558Z,96.62
2017-10-21T07:51:21.156Z,96.48
2017-10-21T07:53:48.859Z,96.44
2017-10-21T07:56:17.799Z,96.37
2017-10-21T07:58:46.045Z,96.44
2017-10-21T08:01:13.670Z,96.53
2017-10-21T08:03:41.322Z,96.67
2017-10-21T08:06:08.936Z,96.58
2017-10-21T08:08:36.527Z,96.66
2017-10-21T08:11:04.150Z,96.73
2017-10-21T08:13:32.112Z,96.70
2017-10-21T08:16:00.106Z,96.66
2017-10-21T08:18:27.918Z,96.50
2017-10-21T08:20:55.524Z,96.26
2017-10-21T08:23:23.728Z,96.16
2017-10-21T08:25:51.315Z,96.00
2017-10-21T08:28:19.163Z,95.92
2017-10-21T08:30:46.764Z,95.84
2017-10-21T08:33:14.379Z,95.67
2017-10-21T08:35:42.024Z,95.39
2017-10-21T08:38:09.706Z,95.17
2017-10-21T08:40:37.298Z,95.10
2017-10-21T08:43:05.378Z,95.22
2017-10-21T08:45:33.326Z,95.11
2017-10-21T08:48:00.979Z,95.10
2017-10-21T08:50:30.525Z,95.02
2017-10-21T08:52:58.151Z,94.97
2017-10-21T08:55:35.033Z,95.01
2017-10-21T08:58:02.612Z,94.62
2017-10-21T09:00:30.261Z,94.48
2017-10-21T09:02:57.863Z,94.22
2017-10-21T09:05:26.156Z,93.64
2017-10-21T09:07:54.442Z,92.95
2017-10-21T09:10:22.088Z,93.23
2017-10-21T09:12:52.162Z,93.26
2017-10-21T09:15:19.831Z,93.31
2017-10-21T09:17:48.904Z,92.74
2017-10-21T09:20:16.632Z,92.35
2017-10-21T09:22:44.694Z,91.99
2017-10-21T09:25:13.394Z,92.20
2017-10-21T09:27:42.526Z,92.14
2017-10-21T09:30:10.349Z,91.45
2017-10-21T09:32:38.073Z,91.07
2017-10-21T09:35:05.704Z,91.14
2017-10-21T09:37:33.332Z,91.51
2017-10-21T09:40:00.914Z,91.40
2017-10-21T09:42:28.504Z,90.84
2017-10-21T09:44:56.576Z,90.58
2017-10-21T09:47:24.585Z,90.65
2017-10-21T09:49:52.593Z,90.63
2017-10-21T09:52:21.496Z,90.75
2017-10-21T09:54:49.119Z,90.49
2017-10-21T09:57:16.717Z,91.22
2017-10-21T09:59:44.430Z,91.20
2017-10-21T10:02:11.998Z,90.18
2017-10-21T10:04:39.642Z,89.57
2017-10-21T10:07:08.484Z,89.03
2017-10-21T10:09:36.070Z,89.10
2017-10-21T10:12:03.716Z,88.57
2017-10-21T10:14:31.298Z,88.44
2017-10-21T10:16:59.004Z,88.04
2017-10-21T10:19:26.567Z,87.18
2017-10-21T10:21:54.176Z,87.10
2017-10-21T10:24:22.178Z,85.42
2017-10-21T10:26:49.806Z,85.18
2017-10-21T10:29:17.537Z,85.18
2017-10-21T10:31:46.020Z,85.12
2017-10-21T10:34:13.608Z,84.01
2017-10-21T10:36:41.216Z,83.04
2017-10-21T10:39:09.301Z,83.69
2017-10-21T10:41:37.299Z,84.85
2017-10-21T10:44:04.923Z,83.83
2017-10-21T10:46:32.534Z,83.83
2017-10-21T10:49:00.575Z,83.42
2017-10-21T10:51:28.188Z,82.81
2017-10-21T10:53:55.780Z,82.08
2017-10-21T10:56:23.389Z,83.10
2017-10-21T10:58:50.971Z,83.15
2017-10-21T11:01:18.744Z,82.97
2017-10-21T11:03:46.348Z,81.97
2017-10-21T11:06:14.103Z,81.75
2017-10-21T11:08:41.692Z,81.21
2017-10-21T11:11:09.734Z,80.63
2017-10-21T11:13:37.335Z,81.67
2017-10-21T11:16:04.909Z,81.10
2017-10-21T11:18:33.918Z,81.01
2017-10-21T11:21:01.511Z,82.36
2017-10-21T11:23:29.149Z,80.63
2017-10-21T11:25:58.123Z,80.61
2017-10-21T11:28:26.519Z,80.38
2017-10-21T11:30:54.100Z,80.44
2017-10-21T11:33:23.187Z,80.35
2017-10-21T11:35:52.144Z,80.55
2017-10-21T11:38:19.717Z,81.22
2017-10-21T11:40:47.330Z,80.86
2017-10-21T11:43:14.928Z,79.60
2017-10-21T11:45:42.658Z,79.91
2017-10-21T11:48:10.245Z,79.28
2017-10-21T11:50:37.892Z,78.92
2017-10-21T11:53:05.489Z,78.70
2017-10-21T11:55:33.112Z,79.08
2017-10-21T11:58:00.701Z,79.77
2017-10-21T12:00:28.319Z,78.67
2017-10-21T12:02:55.919Z,79.25
2017-10-21T12:05:23.644Z,77.65
2017-10-21T12:07:51.259Z,75.80
2017-10-21T12:10:18.934Z,74.98
2017-10-21T12:12:46.521Z,74.84
2017-10-21T12:15:14.130Z,75.36
2017-10-21T12:17:41.861Z,76.23
2017-10-21T12:20:09.493Z,74.94
2017-10-21T12:22:37.131Z,75.87
2017-10-21T12:25:04.719Z,74.63
2017-10-21T12:27:35.060Z,74.83
2017-10-21T12:30:03.335Z,75.20
2017-10-21T12:32:32.464Z,74.93
2017-10-21T12:35:00.541Z,75.92
2017-10-21T12:37:28.143Z,75.93
2017-10-21T12:39:55.742Z,76.23
2017-10-21T12:42:23.335Z,76.29
2017-10-21T12:44:50.937Z,77.19
2017-10-21T12:47:18.770Z,75.95
2017-10-21T12:49:46.365Z,75.96
2017-10-21T12:52:13.964Z,75.80
2017-10-21T12:54:41.582Z,76.37
2017-10-21T12:57:09.696Z,76.49
2017-10-21T12:59:37.371Z,76.46
2017-10-21T13:02:04.992Z,75.59
2017-10-21T13:04:32.658Z,76.25
2017-10-21T13:07:00.405Z,75.69
2017-10-21T13:09:28.007Z,75.27
2017-10-21T13:11:55.605Z,76.02
2017-10-21T13:14:23.194Z,74.87
2017-10-21T13:16:51.101Z,75.61
2017-10-21T13:19:18.677Z,74.47
2017-10-21T13:21:46.264Z,75.48
2017-10-21T13:24:13.947Z,75.27
2017-10-21T13:26:41.764Z,74.55
2017-10-21T13:29:09.353Z,73.54
2017-10-21T13:31:36.915Z,73.91
2017-10-21T13:34:04.521Z,73.59
2017-10-21T13:36:32.124Z,72.19
2017-10-21T13:39:00.338Z,73.11
2017-10-21T13:41:27.933Z,72.83
2017-10-21T13:43:55.513Z,72.98
2017-10-21T13:46:23.117Z,72.30
2017-10-21T13:48:50.690Z,73.25
2017-10-21T13:51:18.664Z,72.81
2017-10-21T13:53:46.251Z,74.02
2017-10-21T13:56:13.986Z,72.87
2017-10-21T13:58:41.554Z,73.46
2017-10-21T14:01:09.253Z,74.06
2017-10-21T14:03:37.000Z,73.55
2017-10-21T14:06:04.557Z,74.36
2017-10-21T14:08:32.157Z,73.47
2017-10-21T14:10:59.748Z,72.89
2017-10-21T14:13:27.341Z,73.28
2017-10-21T14:15:55.592Z,72.28
2017-10-21T14:18:23.371Z,73.17
2017-10-21T14:20:50.986Z,73.30
2017-10-21T14:23:18.874Z,73.54
2017-10-21T14:25:46.453Z,74.33
2017-10-21T14:28:14.079Z,74.01
2017-10-21T14:30:41.656Z,73.53
2017-10-21T14:33:09.706Z,74.33
2017-10-21T14:35:37.436Z,72.89
2017-10-21T14:38:05.337Z,73.96
2017-10-21T14:40:32.919Z,73.94
2017-10-21T14:43:00.491Z,73.62
2017-10-21T14:45:28.103Z,73.45
2017-10-21T14:47:56.282Z,74.11
2017-10-21T14:50:23.897Z,73.68
2017-10-21T14:52:51.470Z,73.47
2017-10-21T14:55:19.067Z,73.99
2017-10-21T14:57:46.703Z,74.03
2017-10-21T15:02:48.240Z,74.84
2017-10-21T15:05:15.849Z,74.44
2017-10-21T15:07:43.473Z,74.43
2017-10-21T15:10:11.036Z,74.20
2017-10-21T15:12:38.657Z,74.47
2017-10-21T15:15:07.785Z,74.58
2017-10-21T15:17:35.754Z,74.33
2017-10-21T15:20:03.371Z,74.84
2017-10-21T15:22:31.180Z,75.18
2017-10-21T15:24:58.804Z,75.34
2017-10-21T15:27:27.981Z,75.73
2017-10-21T15:29:55.693Z,76.12
2017-10-21T15:32:23.266Z,76.54
2017-10-21T15:34:50.915Z,77.11
2017-10-21T15:37:18.519Z,77.41
2017-10-21T15:39:46.128Z,77.58
2017-10-21T15:42:13.706Z,78.07
2017-10-21T15:44:41.277Z,78.26
2017-10-21T15:47:08.930Z,78.54
2017-10-21T15:49:36.528Z,78.81
2017-10-21T15:52:04.159Z,78.92
2017-10-21T15:54:32.528Z,79.09
2017-10-21T15:57:00.501Z,79.52
2017-10-21T15:59:28.132Z,80.02
2017-10-21T16:01:55.714Z,80.11
2017-10-21T16:04:23.339Z,80.20
2017-10-21T16:06:50.932Z,80.46
2017-10-21T16:09:18.542Z,80.64
2017-10-21T16:11:46.132Z,80.91
2017-10-21T16:14:13.756Z,81.20
2017-10-21T16:16:41.358Z,81.40
2017-10-21T16:19:08.986Z,81.61
2017-10-21T16:21:36.578Z,81.85
2017-10-21T16:24:04.157Z,81.97
2017-10-21T16:26:31.766Z,82.07
2017-10-21T16:28:59.716Z,82.23
2017-10-21T16:31:27.316Z,82.55
2017-10-21T16:33:54.919Z,82.58
2017-10-21T16:36:22.554Z,82.52
2017-10-21T16:38:50.153Z,82.51
2017-10-21T16:41:17.757Z,82.80
2017-10-21T16:43:45.334Z,82.90
2017-10-21T16:46:13.291Z,82.96
2017-10-21T16:48:41.347Z,83.01
2017-10-21T16:51:09.251Z,82.84
2017-10-21T16:53:36.861Z,82.74
2017-10-21T16:56:04.474Z,82.72
2017-10-21T16:58:32.075Z,83.00
2017-10-21T17:00:59.881Z,83.43
2017-10-21T17:03:27.822Z,83.63
2017-10-21T17:05:55.441Z,83.76
2017-10-21T17:08:23.134Z,84.16
2017-10-21T17:10:50.813Z,84.46
2017-10-21T17:13:18.418Z,84.57
2017-10-21T17:15:46.153Z,85.01
2017-10-21T17:18:13.761Z,85.37
2017-10-21T17:20:41.457Z,85.50
2017-10-21T17:23:09.045Z,85.81
2017-10-21T17:25:36.824Z,86.12
2017-10-21T17:28:04.864Z,86.31
2017-10-21T17:30:32.609Z,86.29
2017-10-21T17:33:00.656Z,86.57
2017-10-21T17:35:28.401Z,86.68
2017-10-21T17:37:57.511Z,86.69
2017-10-21T17:40:25.132Z,86.76
2017-10-21T17:42:54.739Z,86.81
2017-10-21T17:45:22.359Z,86.69
2017-10-21T17:47:50.966Z,86.92
2017-10-21T17:50:18.620Z,87.35
2017-10-21T17:52:48.101Z,87.53
2017-10-21T17:55:16.114Z,87.50
2017-10-21T17:57:43.852Z,87.55
2017-10-21T18:00:12.220Z,87.63
2017-10-21T18:02:40.094Z,87.70
2017-10-21T18:05:11.182Z,87.78
2017-10-21T18:07:40.093Z,87.97
2017-10-21T18:10:10.769Z,88.07
2017-10-21T18:12:38.898Z,88.31
2017-10-21T18:15:06.995Z,88.74
2017-10-21T18:17:35.672Z,88.76
2017-10-21T18:20:03.549Z,88.72
2017-10-21T18:22:33.141Z,89.06
2017-10-21T18:25:00.833Z,89.09
2017-10-21T18:27:28.807Z,88.94
2017-10-21T18:29:56.650Z,88.87
2017-10-21T18:32:24.793Z,89.16
2017-10-21T18:34:54.647Z,89.09
2017-10-21T18:37:23.514Z,89.29
2017-10-21T18:39:52.141Z,89.68
2017-10-21T18:42:19.933Z,89.87
2017-10-21T18:44:53.999Z,89.84
2017-10-21T18:47:21.853Z,89.89
2017-10-21T18:49:50.163Z,90.09
2017-10-21T18:52:19.332Z,90.10
2017-10-21T18:54:47.779Z,89.96
2017-10-21T18:57:17.594Z,89.77
2017-10-21T18:59:46.477Z,89.60
2017-10-21T19:02:15.414Z,89.44
2017-10-21T19:04:43.319Z,89.29
2017-10-21T19:07:11.333Z,89.23
2017-10-21T19:09:40.065Z,89.29
2017-10-21T19:12:07.965Z,89.30
2017-10-21T19:14:36.003Z,89.23
2017-10-21T19:17:03.973Z,89.38
2017-10-21T19:19:33.373Z,89.61
2017-10-21T19:22:01.220Z,90.17
2017-10-21T19:24:29.129Z,90.53
2017-10-21T19:26:58.515Z,90.27
2017-10-21T19:29:26.479Z,90.38
2017-10-21T19:31:54.496Z,90.73
2017-10-21T19:34:23.038Z,90.89
2017-10-21T19:36:51.871Z,90.96
2017-10-21T19:39:24.884Z,90.98
2017-10-21T19:41:56.878Z,90.78
2017-10-21T19:44:26.065Z,90.61
2017-10-21T19:46:54.048Z,90.46
2017-10-21T19:49:22.126Z,90.58
2017-10-21T19:51:53.656Z,90.73
2017-10-21T19:54:22.359Z,90.51
2017-10-21T19:56:50.328Z,90.44
2017-10-21T19:59:18.297Z,90.52
2017-10-21T20:01:46.214Z,90.59
2017-10-21T20:04:14.139Z,90.58
2017-10-21T20:06:41.995Z,90.68
2017-10-21T20:09:09.842Z,90.73
2017-10-21T20:11:37.734Z,90.69
2017-10-21T20:14:05.984Z,90.63
2017-10-21T20:16:33.977Z,90.94
2017-10-21T20:19:02.244Z,90.99
2017-10-21T20:21:30.103Z,91.15
2017-10-21T20:23:58.110Z,91.31
2017-10-21T20:26:26.063Z,91.54
2017-10-21T20:28:53.826Z,91.61
2017-10-21T20:31:22.982Z,91.44
2017-10-21T20:33:50.877Z,91.92
2017-10-21T20:36:19.269Z,91.76
2017-10-21T20:38:47.667Z,91.40
2017-10-21T20:41:15.635Z,91.26
2017-10-21T20:43:44.102Z,91.49
2017-10-21T20:46:12.875Z,91.18
2017-10-21T20:48:40.553Z,90.97
2017-10-21T20:51:08.305Z,90.86
2017-10-21T20:53:36.123Z,90.66
2017-10-21T20:56:06.098Z,90.84
2017-10-21T20:58:33.823Z,90.72
2017-10-21T21:01:02.024Z,90.84
2017-10-21T21:03:29.747Z,90.83
2017-10-21T21:05:57.396Z,90.92
2017-10-21T21:08:25.239Z,90.68
2017-10-21T21:10:52.841Z,90.59
2017-10-21T21:13:22.437Z,90.62
2017-10-21T21:15:52.553Z,90.82
2017-10-21T21:18:20.162Z,90.95
2017-10-21T21:20:49.234Z,90.81
2017-10-21T21:23:18.210Z,90.99
2017-10-21T21:25:46.552Z,91.31
2017-10-21T21:28:14.523Z,91.52
2017-10-21T21:30:43.267Z,91.83
2017-10-21T21:33:12.481Z,91.62
2017-10-21T21:35:40.530Z,92.10
2017-10-21T21:38:09.604Z,92.30
2017-10-21T21:40:37.366Z,93.04
2017-10-21T21:43:06.382Z,93.60
2017-10-21T21:45:35.941Z,94.95
2017-10-21T21:48:03.543Z,95.57
2017-10-21T21:50:31.145Z,95.82
2017-10-21T21:53:00.235Z,95.51
2017-10-21T21:55:28.510Z,95.21
2017-10-21T21:57:57.437Z,94.67
2017-10-21T22:00:25.037Z,94.48
2017-10-21T22:02:52.906Z,94.31
2017-10-21T22:05:20.592Z,94.02
2017-10-21T22:07:48.191Z,93.32
2017-10-21T22:10:16.168Z,92.27
2017-10-21T22:12:43.778Z,89.53
2017-10-21T22:15:11.393Z,88.25
2017-10-21T22:17:38.972Z,87.93
2017-10-21T22:20:06.588Z,86.98
2017-10-21T22:22:34.187Z,87.14
2017-10-21T22:25:01.960Z,87.26
2017-10-21T22:27:29.610Z,86.80
2017-10-21T22:29:57.188Z,86.10
2017-10-21T22:32:24.778Z,86.32
2017-10-21T22:34:52.350Z,86.15
2017-10-21T22:37:20.266Z,86.38
2017-10-21T22:39:47.826Z,86.64
2017-10-21T22:42:15.405Z,86.57
2017-10-21T22:44:43.000Z,85.78
2017-10-21T22:47:10.571Z,85.70
2017-10-21T22:49:38.187Z,85.62
2017-10-21T22:52:05.747Z,85.15
2017-10-21T22:54:33.781Z,85.42
2017-10-21T22:57:01.429Z,86.11
2017-10-21T22:59:31.688Z,86.42
2017-10-21T23:02:00.737Z,86.84
2017-10-21T23:04:28.710Z,86.63
2017-10-21T23:06:56.300Z,86.45
2017-10-21T23:09:23.964Z,86.19
2017-10-21T23:11:51.905Z,86.04
2017-10-21T23:14:19.862Z,86.06
2017-10-21T23:16:47.428Z,84.61
2017-10-21T23:19:14.999Z,84.48
2017-10-21T23:21:42.590Z,83.50
2017-10-21T23:24:10.211Z,83.34
2017-10-21T23:26:37.920Z,83.16
2017-10-21T23:29:05.529Z,83.38
2017-10-21T23:31:33.534Z,84.17
2017-10-21T23:34:01.139Z,84.13
2017-10-21T23:36:28.910Z,84.55
2017-10-21T23:38:56.565Z,85.68
2017-10-21T23:41:24.160Z,86.78
2017-10-21T23:43:51.734Z,88.39
2017-10-21T23:46:19.294Z,90.52
2017-10-21T23:48:46.958Z,91.22
2017-10-21T23:51:14.931Z,91.77
2017-10-21T23:53:43.452Z,92.64
2017-10-21T23:56:12.466Z,92.98
2017-10-21T23:58:40.087Z,93.22
